Terminal Aerodrome Forecast
Issued by NWS

Home | Current Version | Previous Version | Text Only | Print | Product List | Glossary On
Versions: 1 2 3 4 5 6 7 8 9 10 11 12 13 14 15 16 17 18 19
000
FTUS44 KOHX 250500
TAFCKV
TAF
KCKV 250520Z 2506/2606 17010KT P6SM VCSH SCT050 BKN100
      TEMPO 2514/2518 3SM -SHRA OVC015
     FM251800 18010G18KT P6SM VCSH BKN040 PROB30 2518/2524 3SM TSRA
      OVC015CB=

USA.gov is the U.S. government's official web portal to all federal, state and local government web resources and services.